Pilot No. 4 — WDA5463 — position and weather

sailwx.info

Track history (hours):
 
Tides and Currents Weather Stations Pressure Air Temp Water Temp Dewpoint Dewpoint Depression Visibility Wind Speed Wind Dir Waves Ship Positions

Pilot No. 4

Owner: P E P Inc, FORT LAUDERDALE, FL. More information available from US FCC via Universal Licensing System and Coast Guard Vessel Documentation Center.

Last reported at 2017-Aug-23 11:31 UTC. Time now 2017-Aug-23 11:43 UTC.
Position N 26°06' W 080°06'.

MMSI: 495270931.

Date/timePositionNaut miles runAvg speedWind from/ knotsBaromVisibWave heightAir tempDewpointWater temp
2017-Aug-23 11:31N 26°06' W 080°06'1 1.4
2017-Aug-23 11:01N 26°06' W 080°07'0 0.8
2017-Aug-23 10:30N 26°05' W 080°07'1 0.8
2017-Aug-23 09:27N 26°06' W 080°07'0 0.1
2017-Aug-23 08:59N 26°06' W 080°07'3 7.1
2017-Aug-23 08:30N 26°05' W 080°04'3 6.6
2017-Aug-23 08:00N 26°04' W 080°07'1 2.5
2017-Aug-23 07:30N 26°06' W 080°07'1 0.6
2017-Aug-23 06:33N 26°06' W 080°07'0 3.3
2017-Aug-23 06:30N 26°06' W 080°07'1 2.9
2017-Aug-23 06:00N 26°06' W 080°06'3 6.3
2017-Aug-23 05:30N 26°06' W 080°02'3 5.9
2017-Aug-23 05:00N 26°06' W 080°05'1 2.8
2017-Aug-23 04:30N 26°05' W 080°07'1 1.3
2017-Aug-23 04:01N 26°06' W 080°07'0 0.5
2017-Aug-23 03:08N 26°06' W 080°07'0 3.7
2017-Aug-23 03:01N 26°06' W 080°07'2 3.2
2017-Aug-23 02:30N 26°06' W 080°05'2 3.9
2017-Aug-23 02:00N 26°04' W 080°07'2 3.4
2017-Aug-23 01:30N 26°06' W 080°07'2 4.0
2017-Aug-23 01:00N 26°06' W 080°05'1 1.8
2017-Aug-23 00:30N 26°06' W 080°06'1 2.4
2017-Aug-23 00:00N 26°06' W 080°07'0 0.0
2017-Aug-22 23:30N 26°06' W 080°07'0 0.1
2017-Aug-22 21:02N 26°06' W 080°07'0 4.5
2017-Aug-22 21:00N 26°06' W 080°07'1 1.4
2017-Aug-22 20:30N 26°06' W 080°07'0 0.7
2017-Aug-22 20:00N 26°05' W 080°07'1 0.8
2017-Aug-22 18:55N 26°06' W 080°07'410.1
2017-Aug-22 18:30N 26°06' W 080°03'4 5.1
2017-Aug-22 17:40N 26°06' W 080°07'1 6.5
2017-Aug-22 17:31N 26°05' W 080°07'0 0.7
2017-Aug-22 17:00N 26°05' W 080°07'2 3.7
2017-Aug-22 16:31N 26°05' W 080°05'2 3.5
2017-Aug-22 16:00N 26°06' W 080°07'3 6.7
2017-Aug-22 15:30N 26°06' W 080°03'4 7.1
2017-Aug-22 15:00N 26°06' W 080°07'1 0.3
2017-Aug-22 12:41N 26°06' W 080°07'1 3.3
2017-Aug-22 12:30N 26°06' W 080°07'0 0.3
2017-Aug-22 12:00N 26°06' W 080°07'1 0.5
2017-Aug-22 10:54N 26°06' W 080°07'3 8.5
2017-Aug-22 10:30N 26°05' W 080°04'1 1.6
2017-Aug-22 10:01N 26°04' W 080°05'2 4.1
2017-Aug-22 09:30N 26°05' W 080°07'1 2.1
2017-Aug-22 09:00N 26°04' W 080°07'2 3.5
2017-Aug-22 08:30N 26°06' W 080°07'0 0.9
2017-Aug-22 08:01N 26°06' W 080°06'0 0.1
2017-Aug-22 07:30N 26°06' W 080°06'1 1.5
2017-Aug-22 07:00N 26°05' W 080°07'1 2.2
2017-Aug-22 06:30N 26°04' W 080°07'2 1.4
2017-Aug-22 04:57N 26°06' W 080°07'2 3.8
2017-Aug-22 04:30N 26°06' W 080°06'1 2.8
2017-Aug-22 04:01N 26°06' W 080°07'0 0.8
2017-Aug-22 03:30N 26°06' W 080°07'1 1.3
2017-Aug-22 03:01N 26°05' W 080°07'1 2.4
2017-Aug-22 02:29N 26°06' W 080°07'1 2.2
2017-Aug-22 02:00N 26°05' W 080°07'0 0.8
2017-Aug-22 01:31N 26°06' W 080°07'2 4.8
2017-Aug-22 01:01N 26°06' W 080°04'1 1.6
2017-Aug-22 00:30N 26°06' W 080°05'2 3.1
2017-Aug-22 00:00N 26°05' W 080°07'1 1.8
2017-Aug-21 23:30N 26°05' W 080°07'2 4.9
2017-Aug-21 23:00N 26°06' W 080°04'3 5.7
2017-Aug-21 22:30N 26°04' W 080°07'1 2.2
2017-Aug-21 22:00N 26°05' W 080°07'1 1.9
2017-Aug-21 21:30N 26°06' W 080°06'0 0.3
2017-Aug-21 21:01N 26°06' W 080°06'1 2.1
2017-Aug-21 20:31N 26°05' W 080°07'0 0.9
2017-Aug-21 20:00N 26°06' W 080°07'1 0.2
2017-Aug-21 16:30N 26°06' W 080°07'3 6.2
2017-Aug-21 16:00N 26°06' W 080°04'3 5.4
2017-Aug-21 15:30N 26°05' W 080°07'1 2.0
2017-Aug-21 14:52N 26°06' W 080°07'2 5.3
2017-Aug-21 14:31N 26°06' W 080°05'2 3.3
2017-Aug-21 14:00N 26°06' W 080°07'0 0.4
2017-Aug-21 13:30N 26°05' W 080°07'0 0.4
2017-Aug-21 13:00N 26°06' W 080°07'2 4.1
2017-Aug-21 12:30N 26°06' W 080°05'2 4.1
2017-Aug-21 12:00N 26°06' W 080°07'4 8.4
2017-Aug-21 11:31N 26°05' W 080°03'4 7.5
2017-Aug-21 10:55N 26°06' W 080°07'2 5.4
2017-Aug-21 10:30N 26°06' W 080°05'2 4.0
2017-Aug-21 10:00N 26°06' W 080°07'0 0.0
2017-Aug-21 09:30N 26°06' W 080°07'4 8.1
2017-Aug-21 09:00N 26°06' W 080°03'4 8.2
2017-Aug-21 08:30N 26°05' W 080°07'1 1.9
2017-Aug-21 08:00N 26°06' W 080°06'1 1.1
2017-Aug-21 07:30N 26°06' W 080°05'2 3.1
2017-Aug-21 07:00N 26°06' W 080°07'1 1.0
2017-Aug-21 06:30N 26°05' W 080°07'1 2.9
2017-Aug-21 06:00N 26°05' W 080°05'1 2.5
2017-Aug-21 05:30N 26°06' W 080°07'1 1.5
2017-Aug-21 05:00N 26°06' W 080°06'1 2.0
2017-Aug-21 04:30N 26°05' W 080°07'1 0.5
2017-Aug-21 03:02N 26°06' W 080°07'0 4.7
2017-Aug-21 03:00N 26°06' W 080°07'1 1.8
2017-Aug-21 02:30N 26°05' W 080°07'1 2.2
2017-Aug-21 02:00N 26°06' W 080°06'2 3.6
2017-Aug-21 01:30N 26°05' W 080°04'3 6.7
2017-Aug-21 01:00N 26°06' W 080°07'0 0.2
2017-Aug-21 00:30N 26°06' W 080°07'510.1
2017-Aug-21 00:00N 26°06' W 080°02'5 9.5
2017-Aug-20 23:30N 26°05' W 080°07'0 0.6
2017-Aug-20 23:00N 26°05' W 080°07'1 1.6
2017-Aug-20 22:20N 26°06' W 080°07'3 9.7
2017-Aug-20 22:01N 26°06' W 080°04'3 5.4
2017-Aug-20 21:30N 26°06' W 080°07'1 2.2
2017-Aug-20 21:01N 26°06' W 080°06'1 2.8
2017-Aug-20 20:30N 26°06' W 080°07'1 0.1
2017-Aug-20 15:28N 26°06' W 080°07'3 6.1
2017-Aug-20 15:00N 26°05' W 080°05'2 4.5
2017-Aug-20 14:30N 26°04' W 080°07'1 1.6
2017-Aug-20 14:00N 26°05' W 080°07'0 0.9
2017-Aug-20 13:30N 26°06' W 080°07'0 0.5
2017-Aug-20 13:00N 26°06' W 080°07'1 2.2
2017-Aug-20 12:30N 26°06' W 080°06'1 2.1
2017-Aug-20 12:00N 26°06' W 080°07'2 3.6
2017-Aug-20 11:30N 26°04' W 080°07'2 3.0
2017-Aug-20 10:46N 26°06' W 080°07'311.8
2017-Aug-20 10:30N 26°05' W 080°04'1 1.2
2017-Aug-20 10:00N 26°06' W 080°05'2 4.3
2017-Aug-20 09:30N 26°05' W 080°07'2 5.0
2017-Aug-20 09:01N 26°05' W 080°04'3 2.9
2017-Aug-20 07:59N 26°06' W 080°07'4 9.0
2017-Aug-20 07:30N 26°05' W 080°03'4 7.5
2017-Aug-20 07:00N 26°05' W 080°07'4 8.1
2017-Aug-20 06:30N 26°06' W 080°02'4 7.7
2017-Aug-20 06:00N 26°06' W 080°07'1 2.1
2017-Aug-20 05:31N 26°04' W 080°07'1 1.3
2017-Aug-20 05:01N 26°05' W 080°07'1 2.2
2017-Aug-20 04:30N 26°06' W 080°06'1 2.3
2017-Aug-20 04:00N 26°05' W 080°07'0 0.3
2017-Aug-20 03:30N 26°05' W 080°07'1 0.5
2017-Aug-20 01:33N 26°06' W 080°07'0 4.6
2017-Aug-20 01:30N 26°06' W 080°07'0 0.2
2017-Aug-20 01:01N 26°06' W 080°07'1 2.5
2017-Aug-20 00:30N 26°06' W 080°06'0 0.1
2017-Aug-20 00:00N 26°06' W 080°06'2 3.3
2017-Aug-19 23:30N 26°04' W 080°07'1 2.8
2017-Aug-19 23:01N 26°06' W 080°07'1 1.4
2017-Aug-19 22:30N 26°06' W 080°07'0 0.5
2017-Aug-19 22:01N 26°06' W 080°07'1 1.7
2017-Aug-19 21:30N 26°05' W 080°07'0 0.1
2017-Aug-19 21:01N 26°05' W 080°07'714.0
2017-Aug-19 20:30N 26°11' W 080°02'714.5
2017-Aug-19 20:01N 26°05' W 080°07'0 0.6
2017-Aug-19 19:30N 26°05' W 080°07'1 2.1
2017-Aug-19 19:00N 26°06' W 080°06'1 1.0
2017-Aug-19 17:30N 26°06' W 080°07'1 1.3
2017-Aug-19 17:01N 26°06' W 080°07'3 5.4
2017-Aug-19 16:30N 26°06' W 080°04'2 3.1
2017-Aug-19 16:00N 26°06' W 080°06'1 2.2
2017-Aug-19 15:30N 26°05' W 080°07'1 0.4
2017-Aug-19 12:38N 26°06' W 080°07'1 4.3
2017-Aug-19 12:30N 26°06' W 080°07'0 0.0
2017-Aug-19 12:00N 26°06' W 080°07'0 0.7
2017-Aug-19 11:30N 26°06' W 080°07'1 1.5
2017-Aug-19 11:00N 26°06' W 080°06'2 3.1
2017-Aug-19 10:30N 26°06' W 080°05'2 3.8
2017-Aug-19 10:00N 26°05' W 080°07'4 7.7
2017-Aug-19 09:30N 26°06' W 080°03'1 2.1
2017-Aug-19 09:00N 26°06' W 080°04'3 6.3
2017-Aug-19 08:30N 26°05' W 080°07'4 7.5
2017-Aug-19 08:00N 26°06' W 080°03'4 8.2
2017-Aug-19 07:30N 26°04' W 080°07'0 0.7
2017-Aug-19 07:00N 26°04' W 080°07'1 1.8
2017-Aug-19 06:30N 26°05' W 080°07'4 9.0
2017-Aug-19 06:00N 26°06' W 080°02'4 8.8
2017-Aug-19 05:30N 26°06' W 080°07'1 2.3
2017-Aug-19 05:00N 26°04' W 080°07'1 1.7
2017-Aug-19 04:30N 26°05' W 080°07'0 0.8
2017-Aug-19 04:00N 26°06' W 080°07'1 1.6
2017-Aug-19 03:31N 26°06' W 080°06'1 1.4
2017-Aug-19 02:35N 26°06' W 080°07'0 3.6
2017-Aug-19 02:30N 26°06' W 080°07'1 1.2
2017-Aug-19 02:00N 26°06' W 080°07'0 0.4
2017-Aug-19 01:30N 26°05' W 080°07'3 5.8
2017-Aug-19 01:00N 26°06' W 080°04'3 5.7
2017-Aug-19 00:31N 26°05' W 080°07'0 0.7
2017-Aug-19 00:00N 26°05' W 080°07'0 0.8
2017-Aug-18 23:30N 26°05' W 080°07'1 2.2
2017-Aug-18 23:00N 26°06' W 080°07'0 0.0
2017-Aug-18 22:13N 26°06' W 080°07'0 0.0
2017-Aug-18 22:00N 26°06' W 080°07'0 0.4
2017-Aug-18 21:30N 26°06' W 080°07'1 1.3
2017-Aug-18 21:00N 26°06' W 080°07'1 0.9
2017-Aug-18 20:07N 26°06' W 080°07'0 0.0
2017-Aug-18 19:51N 26°06' W 080°07'2 7.3
2017-Aug-18 19:30N 26°06' W 080°05'2 0.6
2017-Aug-18 15:41N 26°06' W 080°07'0 2.2
2017-Aug-18 15:31N 26°06' W 080°07'4 7.5
2017-Aug-18 15:00N 26°06' W 080°03'4 7.6
2017-Aug-18 14:31N 26°05' W 080°07'1 1.0
2017-Aug-18 13:30N 26°06' W 080°06'1 1.0
2017-Aug-18 13:01N 26°06' W 080°07'1 1.3
2017-Aug-18 12:30N 26°06' W 080°07'0 0.8
2017-Aug-18 12:00N 26°06' W 080°07'3 5.7
2017-Aug-18 11:31N 26°06' W 080°04'1 1.5
2017-Aug-18 10:59N 26°06' W 080°05'2 4.4
2017-Aug-18 10:30N 26°05' W 080°07'1 2.3
2017-Aug-18 10:00N 26°06' W 080°06'1 2.5
2017-Aug-18 09:30N 26°06' W 080°07'0 0.6
2017-Aug-18 09:00N 26°06' W 080°07'4 8.0
2017-Aug-18 08:30N 26°05' W 080°03'4 7.4
2017-Aug-18 08:00N 26°04' W 080°07'2 1.5
2017-Aug-18 06:48N 26°06' W 080°07'1 3.0
2017-Aug-18 06:30N 26°05' W 080°07'0 0.1
2017-Aug-18 06:00N 26°05' W 080°07'0 0.1
2017-Aug-18 05:31N 26°05' W 080°07'2 4.3
2017-Aug-18 05:00N 26°06' W 080°05'1 2.7
2017-Aug-18 04:31N 26°06' W 080°06'1 0.4
2017-Aug-18 01:43N 26°06' W 080°07'1 4.7
2017-Aug-18 01:30N 26°06' W 080°06'1 2.1
2017-Aug-18 01:01N 26°06' W 080°05'2 3.4
2017-Aug-18 00:30N 26°06' W 080°07'1 2.1
2017-Aug-18 00:00N 26°06' W 080°06'1 2.1
2017-Aug-17 23:30N 26°05' W 080°07'1 2.7
2017-Aug-17 23:00N 26°06' W 080°06'1 2.8
2017-Aug-17 22:30N 26°06' W 080°07'0 0.1
2017-Aug-17 19:13N 26°06' W 080°07'1 6.6
2017-Aug-17 19:00N 26°05' W 080°07'0 0.4
2017-Aug-17 18:30N 26°05' W 080°07'1 1.1
2017-Aug-17 18:00N 26°05' W 080°07'1 1.9
2017-Aug-17 17:30N 26°05' W 080°07'4 8.1
2017-Aug-17 17:00N 26°06' W 080°03'4 8.3
2017-Aug-17 16:30N 26°04' W 080°07'1 2.0
2017-Aug-17 16:00N 26°05' W 080°07'1 2.0
2017-Aug-17 15:30N 26°06' W 080°06'1 2.0
2017-Aug-17 15:00N 26°06' W 080°07'1 0.4
2017-Aug-17 13:25N 26°06' W 080°07'1 1.9
2017-Aug-17 13:00N 26°05' W 080°07'2 4.1
2017-Aug-17 12:30N 26°06' W 080°05'2 4.3
2017-Aug-17 12:00N 26°06' W 080°07'1 0.3
2017-Aug-17 09:36N 26°06' W 080°07'0 2.5
2017-Aug-17 09:31N 26°06' W 080°07'5 9.1
2017-Aug-17 09:01N 26°06' W 080°02'4 8.7
2017-Aug-17 08:30N 26°05' W 080°07'1 0.3
2017-Aug-17 05:53N 26°06' W 080°07'1 2.5
2017-Aug-17 05:30N 26°06' W 080°06'1 2.7
2017-Aug-17 05:00N 26°04' W 080°07'1 2.4
2017-Aug-17 04:30N 26°06' W 080°07'2 3.0
2017-Aug-17 03:59N 26°06' W 080°05'1 2.7
2017-Aug-17 03:30N 26°06' W 080°07'0 0.7
2017-Aug-17 03:00N 26°05' W 080°07'3 5.0
2017-Aug-17 02:30N 26°06' W 080°04'3 6.3
2017-Aug-17 02:00N 26°04' W 080°07'0 0.4
2017-Aug-17 01:30N 26°04' W 080°07'3 5.2
2017-Aug-17 01:00N 26°06' W 080°05'0 0.9
2017-Aug-17 00:31N 26°06' W 080°04'3 5.1
2017-Aug-17 00:00N 26°06' W 080°07'2 4.6
2017-Aug-16 23:30N 26°06' W 080°05'1 2.0
2017-Aug-16 23:00N 26°06' W 080°06'2 3.3
2017-Aug-16 22:30N 26°05' W 080°07'1 2.3
2017-Aug-16 22:00N 26°06' W 080°06'1 2.1
2017-Aug-16 21:30N 26°05' W 080°07'3 5.5
2017-Aug-16 21:00N 26°06' W 080°04'2 5.0
2017-Aug-16 20:30N 26°05' W 080°07'0 0.8
2017-Aug-16 20:00N 26°06' W 080°07'0 0.2
2017-Aug-16 19:30N 26°06' W 080°07'0 0.1
2017-Aug-16 19:00N 26°06' W 080°07'3 5.7
2017-Aug-16 18:30N 26°06' W 080°04'1 1.5
2017-Aug-16 18:00N 26°05' W 080°05'2 4.5
2017-Aug-16 17:30N 26°04' W 080°07'1 2.2
2017-Aug-16 17:00N 26°05' W 080°07'4 7.8
2017-Aug-16 16:30N 26°06' W 080°03'4 1.1
2017-Aug-16 12:58N 26°06' W 080°07'1 1.7
2017-Aug-16 12:30N 26°06' W 080°06'1 0.8
2017-Aug-16 11:12N 26°06' W 080°07'1 6.0
2017-Aug-16 11:00N 26°06' W 080°06'2 3.2
2017-Aug-16 10:31N 26°05' W 080°04'2 4.8
2017-Aug-16 10:00N 26°05' W 080°07'0 0.3
2017-Aug-16 09:30N 26°05' W 080°07'4 7.8
2017-Aug-16 09:00N 26°05' W 080°03'4 8.1
2017-Aug-16 08:30N 26°04' W 080°07'3 6.2
2017-Aug-16 08:00N 26°06' W 080°04'2 3.8
2017-Aug-16 07:30N 26°06' W 080°06'1 2.2
2017-Aug-16 07:01N 26°05' W 080°07'1 2.7
2017-Aug-16 06:31N 26°04' W 080°07'2 0.6
2017-Aug-16 03:38N 26°06' W 080°07'0 3.7
2017-Aug-16 03:30N 26°06' W 080°07'1 1.2
2017-Aug-16 03:00N 26°05' W 080°07'1 1.0
2017-Aug-16 02:30N 26°04' W 080°07'1 2.2
2017-Aug-16 02:00N 26°06' W 080°07'1 1.6
2017-Aug-16 01:30N 26°05' W 080°07'3 5.9
2017-Aug-16 01:00N 26°06' W 080°04'3 5.7
2017-Aug-16 00:30N 26°06' W 080°07'0 0.7
2017-Aug-16 00:00N 26°06' W 080°07'1 1.2
2017-Aug-15 23:30N 26°06' W 080°07'0 0.3
2017-Aug-15 22:33N 26°06' W 080°07'0 2.6
2017-Aug-15 22:30N 26°06' W 080°07'1 2.7
2017-Aug-15 22:00N 26°05' W 080°07'3 6.3
2017-Aug-15 21:30N 26°05' W 080°03'3 6.2
2017-Aug-15 21:00N 26°05' W 080°07'1 2.9
2017-Aug-15 20:30N 26°04' W 080°07'1 2.8
2017-Aug-15 20:01N 26°05' W 080°07'1 1.4
2017-Aug-15 19:22N 26°06' W 080°07'1 2.3
2017-Aug-15 19:00N 26°06' W 080°07'5 9.2
2017-Aug-15 18:30N 26°07' W 080°02'510.0
2017-Aug-15 18:00N 26°06' W 080°07'0 0.5
2017-Aug-15 17:17N 26°06' W 080°07'2 7.5
2017-Aug-15 17:00N 26°04' W 080°07'2 3.5
2017-Aug-15 16:31N 26°06' W 080°07'3 6.4
2017-Aug-15 16:00N 26°05' W 080°04'3 6.3
2017-Aug-15 15:30N 26°04' W 080°07'4 7.4
2017-Aug-15 15:00N 26°03' W 080°03'4 8.8
2017-Aug-15 14:30N 26°06' W 080°07'0 0.1
2017-Aug-15 14:00N 26°06' W 080°07'2 4.8
2017-Aug-15 13:30N 26°06' W 080°05'1 2.4
2017-Aug-15 13:00N 26°05' W 080°03'4 7.5
2017-Aug-15 12:30N 26°06' W 080°07'0 0.7
2017-Aug-15 12:00N 26°06' W 080°07'1 0.0
2017-Aug-15 01:37N 26°06' W 080°07'0 4.2
2017-Aug-15 01:30N 26°06' W 080°07'0 0.7
2017-Aug-15 01:01N 26°06' W 080°07'0 0.9
2017-Aug-15 00:31N 26°05' W 080°07'1 1.7
2017-Aug-14 23:52N 26°06' W 080°07'1 3.0
2017-Aug-14 23:30N 26°05' W 080°07'2 3.9
2017-Aug-14 23:00N 26°05' W 080°05'1 2.4
2017-Aug-14 22:30N 26°06' W 080°06'1 2.0
2017-Aug-14 22:00N 26°06' W 080°07'1 1.2
2017-Aug-14 21:30N 26°05' W 080°07'1 1.2
2017-Aug-14 20:37N 26°06' W 080°07'0 4.1
2017-Aug-14 20:31N 26°06' W 080°07'0 0.3
2017-Aug-14 20:01N 26°06' W 080°07'0 0.3
2017-Aug-14 18:50N 26°06' W 080°07'1 4.3
2017-Aug-14 18:31N 26°06' W 080°06'1 2.7
2017-Aug-14 18:00N 26°05' W 080°07'0 0.1
2017-Aug-14 17:31N 26°05' W 080°07'2 3.4
2017-Aug-14 17:01N 26°06' W 080°05'2 1.9
2017-Aug-14 16:01N 26°06' W 080°07'0 1.3
2017-Aug-14 16:00N 26°06' W 080°07'1 1.5
2017-Aug-14 15:30N 26°06' W 080°07'1 2.3
2017-Aug-14 15:00N 26°05' W 080°07'1 1.7
2017-Aug-14 14:30N 26°05' W 080°07'1 0.4
2017-Aug-14 12:50N 26°06' W 080°07'2 6.3
2017-Aug-14 12:31N 26°06' W 080°05'0 1.0
2017-Aug-14 12:01N 26°06' W 080°05'3 5.7
2017-Aug-14 11:30N 26°05' W 080°02'4 8.9
2017-Aug-14 11:00N 26°06' W 080°07'0 0.0
2017-Aug-14 01:24N 26°06' W 080°07'3 7.2
2017-Aug-14 01:00N 26°06' W 080°04'3 6.0
2017-Aug-14 00:31N 26°06' W 080°07'0 0.2
2017-Aug-13 23:29N 26°06' W 080°07'1 1.5
2017-Aug-13 23:00N 26°05' W 080°07'1 2.7
2017-Aug-13 22:31N 26°06' W 080°06'1 1.0
2017-Aug-13 22:01N 26°05' W 080°05'0 0.8
2017-Aug-13 21:31N 26°06' W 080°05'2 3.6
2017-Aug-13 21:00N 26°06' W 080°07'0 0.2
2017-Aug-13 20:30N 26°06' W 080°07'1 0.2
2017-Aug-13 16:57N 26°06' W 080°07'2 3.9
2017-Aug-13 16:30N 26°04' W 080°07'3 6.7
2017-Aug-13 16:00N 26°05' W 080°03'4 3.0
2017-Aug-13 14:41N 26°06' W 080°07'1 6.6
2017-Aug-13 14:31N 26°05' W 080°07'1 1.0
2017-Aug-13 14:00N 26°06' W 080°07'0 0.8
2017-Aug-13 13:30N 26°06' W 080°07'0 0.1
2017-Aug-13 13:01N 26°06' W 080°07'1 2.1
2017-Aug-13 12:30N 26°06' W 080°06'1 2.3
2017-Aug-13 12:01N 26°06' W 080°07'  
Track history (hours):
 
Tides and Currents Weather Stations Pressure Air Temp Water Temp Dewpoint Dewpoint Depression Visibility Wind Speed Wind Dir Waves Ship Positions

Pilot No. 4

Owner: P E P Inc, FORT LAUDERDALE, FL. More information available from US FCC via Universal Licensing System and Coast Guard Vessel Documentation Center.

Last reported at 2017-Aug-23 11:31 UTC. Time now 2017-Aug-23 11:43 UTC.
Position N 26°06' W 080°06'.

MMSI: 495270931.

Date/timePositionNaut miles runAvg speedWind from/ knotsBaromVisibWave heightAir tempDewpointWater temp
2017-Aug-23 11:31N 26°06' W 080°06'1 1.4
2017-Aug-23 11:01N 26°06' W 080°07'0 0.8
2017-Aug-23 10:30N 26°05' W 080°07'1 0.8
2017-Aug-23 09:27N 26°06' W 080°07'0 0.1
2017-Aug-23 08:59N 26°06' W 080°07'3 7.1
2017-Aug-23 08:30N 26°05' W 080°04'3 6.6
2017-Aug-23 08:00N 26°04' W 080°07'1 2.5
2017-Aug-23 07:30N 26°06' W 080°07'1 0.6
2017-Aug-23 06:33N 26°06' W 080°07'0 3.3
2017-Aug-23 06:30N 26°06' W 080°07'1 2.9
2017-Aug-23 06:00N 26°06' W 080°06'3 6.3
2017-Aug-23 05:30N 26°06' W 080°02'3 5.9
2017-Aug-23 05:00N 26°06' W 080°05'1 2.8
2017-Aug-23 04:30N 26°05' W 080°07'1 1.3
2017-Aug-23 04:01N 26°06' W 080°07'0 0.5
2017-Aug-23 03:08N 26°06' W 080°07'0 3.7
2017-Aug-23 03:01N 26°06' W 080°07'2 3.2
2017-Aug-23 02:30N 26°06' W 080°05'2 3.9
2017-Aug-23 02:00N 26°04' W 080°07'2 3.4
2017-Aug-23 01:30N 26°06' W 080°07'2 4.0
2017-Aug-23 01:00N 26°06' W 080°05'1 1.8
2017-Aug-23 00:30N 26°06' W 080°06'1 2.4
2017-Aug-23 00:00N 26°06' W 080°07'0 0.0
2017-Aug-22 23:30N 26°06' W 080°07'0 0.1
2017-Aug-22 21:02N 26°06' W 080°07'0 4.5
2017-Aug-22 21:00N 26°06' W 080°07'1 1.4
2017-Aug-22 20:30N 26°06' W 080°07'0 0.7
2017-Aug-22 20:00N 26°05' W 080°07'1 0.8
2017-Aug-22 18:55N 26°06' W 080°07'410.1
2017-Aug-22 18:30N 26°06' W 080°03'4 5.1
2017-Aug-22 17:40N 26°06' W 080°07'1 6.5
2017-Aug-22 17:31N 26°05' W 080°07'0 0.7
2017-Aug-22 17:00N 26°05' W 080°07'2 3.7
2017-Aug-22 16:31N 26°05' W 080°05'2 3.5
2017-Aug-22 16:00N 26°06' W 080°07'3 6.7
2017-Aug-22 15:30N 26°06' W 080°03'4 7.1
2017-Aug-22 15:00N 26°06' W 080°07'1 0.3
2017-Aug-22 12:41N 26°06' W 080°07'1 3.3
2017-Aug-22 12:30N 26°06' W 080°07'0 0.3
2017-Aug-22 12:00N 26°06' W 080°07'1 0.5
2017-Aug-22 10:54N 26°06' W 080°07'3 8.5
2017-Aug-22 10:30N 26°05' W 080°04'1 1.6
2017-Aug-22 10:01N 26°04' W 080°05'2 4.1
2017-Aug-22 09:30N 26°05' W 080°07'1 2.1
2017-Aug-22 09:00N 26°04' W 080°07'2 3.5
2017-Aug-22 08:30N 26°06' W 080°07'0 0.9
2017-Aug-22 08:01N 26°06' W 080°06'0 0.1
2017-Aug-22 07:30N 26°06' W 080°06'1 1.5
2017-Aug-22 07:00N 26°05' W 080°07'1 2.2
2017-Aug-22 06:30N 26°04' W 080°07'2 1.4
2017-Aug-22 04:57N 26°06' W 080°07'2 3.8
2017-Aug-22 04:30N 26°06' W 080°06'1 2.8
2017-Aug-22 04:01N 26°06' W 080°07'0 0.8
2017-Aug-22 03:30N 26°06' W 080°07'1 1.3
2017-Aug-22 03:01N 26°05' W 080°07'1 2.4
2017-Aug-22 02:29N 26°06' W 080°07'1 2.2
2017-Aug-22 02:00N 26°05' W 080°07'0 0.8
2017-Aug-22 01:31N 26°06' W 080°07'2 4.8
2017-Aug-22 01:01N 26°06' W 080°04'1 1.6
2017-Aug-22 00:30N 26°06' W 080°05'2 3.1
2017-Aug-22 00:00N 26°05' W 080°07'1 1.8
2017-Aug-21 23:30N 26°05' W 080°07'2 4.9
2017-Aug-21 23:00N 26°06' W 080°04'3 5.7
2017-Aug-21 22:30N 26°04' W 080°07'1 2.2
2017-Aug-21 22:00N 26°05' W 080°07'1 1.9
2017-Aug-21 21:30N 26°06' W 080°06'0 0.3
2017-Aug-21 21:01N 26°06' W 080°06'1 2.1
2017-Aug-21 20:31N 26°05' W 080°07'0 0.9
2017-Aug-21 20:00N 26°06' W 080°07'1 0.2
2017-Aug-21 16:30N 26°06' W 080°07'3 6.2
2017-Aug-21 16:00N 26°06' W 080°04'3 5.4
2017-Aug-21 15:30N 26°05' W 080°07'1 2.0
2017-Aug-21 14:52N 26°06' W 080°07'2 5.3
2017-Aug-21 14:31N 26°06' W 080°05'2 3.3
2017-Aug-21 14:00N 26°06' W 080°07'0 0.4
2017-Aug-21 13:30N 26°05' W 080°07'0 0.4
2017-Aug-21 13:00N 26°06' W 080°07'2 4.1
2017-Aug-21 12:30N 26°06' W 080°05'2 4.1
2017-Aug-21 12:00N 26°06' W 080°07'4 8.4
2017-Aug-21 11:31N 26°05' W 080°03'4 7.5
2017-Aug-21 10:55N 26°06' W 080°07'2 5.4
2017-Aug-21 10:30N 26°06' W 080°05'2 4.0
2017-Aug-21 10:00N 26°06' W 080°07'0 0.0
2017-Aug-21 09:30N 26°06' W 080°07'4 8.1
2017-Aug-21 09:00N 26°06' W 080°03'4 8.2
2017-Aug-21 08:30N 26°05' W 080°07'1 1.9
2017-Aug-21 08:00N 26°06' W 080°06'1 1.1
2017-Aug-21 07:30N 26°06' W 080°05'2 3.1
2017-Aug-21 07:00N 26°06' W 080°07'1 1.0
2017-Aug-21 06:30N 26°05' W 080°07'1 2.9
2017-Aug-21 06:00N 26°05' W 080°05'1 2.5
2017-Aug-21 05:30N 26°06' W 080°07'1 1.5
2017-Aug-21 05:00N 26°06' W 080°06'1 2.0
2017-Aug-21 04:30N 26°05' W 080°07'1 0.5
2017-Aug-21 03:02N 26°06' W 080°07'0 4.7
2017-Aug-21 03:00N 26°06' W 080°07'1 1.8
2017-Aug-21 02:30N 26°05' W 080°07'1 2.2
2017-Aug-21 02:00N 26°06' W 080°06'2 3.6
2017-Aug-21 01:30N 26°05' W 080°04'3 6.7
2017-Aug-21 01:00N 26°06' W 080°07'0 0.2
2017-Aug-21 00:30N 26°06' W 080°07'510.1
2017-Aug-21 00:00N 26°06' W 080°02'5 9.5
2017-Aug-20 23:30N 26°05' W 080°07'0 0.6
2017-Aug-20 23:00N 26°05' W 080°07'1 1.6
2017-Aug-20 22:20N 26°06' W 080°07'3 9.7
2017-Aug-20 22:01N 26°06' W 080°04'3 5.4
2017-Aug-20 21:30N 26°06' W 080°07'1 2.2
2017-Aug-20 21:01N 26°06' W 080°06'1 2.8
2017-Aug-20 20:30N 26°06' W 080°07'1 0.1
2017-Aug-20 15:28N 26°06' W 080°07'3 6.1
2017-Aug-20 15:00N 26°05' W 080°05'2 4.5
2017-Aug-20 14:30N 26°04' W 080°07'1 1.6
2017-Aug-20 14:00N 26°05' W 080°07'0 0.9
2017-Aug-20 13:30N 26°06' W 080°07'0 0.5
2017-Aug-20 13:00N 26°06' W 080°07'1 2.2
2017-Aug-20 12:30N 26°06' W 080°06'1 2.1
2017-Aug-20 12:00N 26°06' W 080°07'2 3.6
2017-Aug-20 11:30N 26°04' W 080°07'2 3.0
2017-Aug-20 10:46N 26°06' W 080°07'311.8
2017-Aug-20 10:30N 26°05' W 080°04'1 1.2
2017-Aug-20 10:00N 26°06' W 080°05'2 4.3
2017-Aug-20 09:30N 26°05' W 080°07'2 5.0
2017-Aug-20 09:01N 26°05' W 080°04'3 2.9
2017-Aug-20 07:59N 26°06' W 080°07'4 9.0
2017-Aug-20 07:30N 26°05' W 080°03'4 7.5
2017-Aug-20 07:00N 26°05' W 080°07'4 8.1
2017-Aug-20 06:30N 26°06' W 080°02'4 7.7
2017-Aug-20 06:00N 26°06' W 080°07'1 2.1
2017-Aug-20 05:31N 26°04' W 080°07'1 1.3
2017-Aug-20 05:01N 26°05' W 080°07'1 2.2
2017-Aug-20 04:30N 26°06' W 080°06'1 2.3
2017-Aug-20 04:00N 26°05' W 080°07'0 0.3
2017-Aug-20 03:30N 26°05' W 080°07'1 0.5
2017-Aug-20 01:33N 26°06' W 080°07'0 4.6
2017-Aug-20 01:30N 26°06' W 080°07'0 0.2
2017-Aug-20 01:01N 26°06' W 080°07'1 2.5
2017-Aug-20 00:30N 26°06' W 080°06'0 0.1
2017-Aug-20 00:00N 26°06' W 080°06'2 3.3
2017-Aug-19 23:30N 26°04' W 080°07'1 2.8
2017-Aug-19 23:01N 26°06' W 080°07'1 1.4
2017-Aug-19 22:30N 26°06' W 080°07'0 0.5
2017-Aug-19 22:01N 26°06' W 080°07'1 1.7
2017-Aug-19 21:30N 26°05' W 080°07'0 0.1
2017-Aug-19 21:01N 26°05' W 080°07'714.0
2017-Aug-19 20:30N 26°11' W 080°02'714.5
2017-Aug-19 20:01N 26°05' W 080°07'0 0.6
2017-Aug-19 19:30N 26°05' W 080°07'1 2.1
2017-Aug-19 19:00N 26°06' W 080°06'1 1.0
2017-Aug-19 17:30N 26°06' W 080°07'1 1.3
2017-Aug-19 17:01N 26°06' W 080°07'3 5.4
2017-Aug-19 16:30N 26°06' W 080°04'2 3.1
2017-Aug-19 16:00N 26°06' W 080°06'1 2.2
2017-Aug-19 15:30N 26°05' W 080°07'1 0.4
2017-Aug-19 12:38N 26°06' W 080°07'1 4.3
2017-Aug-19 12:30N 26°06' W 080°07'0 0.0
2017-Aug-19 12:00N 26°06' W 080°07'0 0.7
2017-Aug-19 11:30N 26°06' W 080°07'1 1.5
2017-Aug-19 11:00N 26°06' W 080°06'2 3.1
2017-Aug-19 10:30N 26°06' W 080°05'2 3.8
2017-Aug-19 10:00N 26°05' W 080°07'4 7.7
2017-Aug-19 09:30N 26°06' W 080°03'1 2.1
2017-Aug-19 09:00N 26°06' W 080°04'3 6.3
2017-Aug-19 08:30N 26°05' W 080°07'4 7.5
2017-Aug-19 08:00N 26°06' W 080°03'4 8.2
2017-Aug-19 07:30N 26°04' W 080°07'0 0.7
2017-Aug-19 07:00N 26°04' W 080°07'1 1.8
2017-Aug-19 06:30N 26°05' W 080°07'4 9.0
2017-Aug-19 06:00N 26°06' W 080°02'4 8.8
2017-Aug-19 05:30N 26°06' W 080°07'1 2.3
2017-Aug-19 05:00N 26°04' W 080°07'1 1.7
2017-Aug-19 04:30N 26°05' W 080°07'0 0.8
2017-Aug-19 04:00N 26°06' W 080°07'1 1.6
2017-Aug-19 03:31N 26°06' W 080°06'1 1.4
2017-Aug-19 02:35N 26°06' W 080°07'0 3.6
2017-Aug-19 02:30N 26°06' W 080°07'1 1.2
2017-Aug-19 02:00N 26°06' W 080°07'0 0.4
2017-Aug-19 01:30N 26°05' W 080°07'3 5.8
2017-Aug-19 01:00N 26°06' W 080°04'3 5.7
2017-Aug-19 00:31N 26°05' W 080°07'0 0.7
2017-Aug-19 00:00N 26°05' W 080°07'0 0.8
2017-Aug-18 23:30N 26°05' W 080°07'1 2.2
2017-Aug-18 23:00N 26°06' W 080°07'0 0.0
2017-Aug-18 22:13N 26°06' W 080°07'0 0.0
2017-Aug-18 22:00N 26°06' W 080°07'0 0.4
2017-Aug-18 21:30N 26°06' W 080°07'1 1.3
2017-Aug-18 21:00N 26°06' W 080°07'1 0.9
2017-Aug-18 20:07N 26°06' W 080°07'0 0.0
2017-Aug-18 19:51N 26°06' W 080°07'2 7.3
2017-Aug-18 19:30N 26°06' W 080°05'2 0.6
2017-Aug-18 15:41N 26°06' W 080°07'0 2.2
2017-Aug-18 15:31N 26°06' W 080°07'4 7.5
2017-Aug-18 15:00N 26°06' W 080°03'4 7.6
2017-Aug-18 14:31N 26°05' W 080°07'1 1.0
2017-Aug-18 13:30N 26°06' W 080°06'1 1.0
2017-Aug-18 13:01N 26°06' W 080°07'1 1.3
2017-Aug-18 12:30N 26°06' W 080°07'0 0.8
2017-Aug-18 12:00N 26°06' W 080°07'3 5.7
2017-Aug-18 11:31N 26°06' W 080°04'1 1.5
2017-Aug-18 10:59N 26°06' W 080°05'2 4.4
2017-Aug-18 10:30N 26°05' W 080°07'1 2.3
2017-Aug-18 10:00N 26°06' W 080°06'1 2.5
2017-Aug-18 09:30N 26°06' W 080°07'0 0.6
2017-Aug-18 09:00N 26°06' W 080°07'4 8.0
2017-Aug-18 08:30N 26°05' W 080°03'4 7.4
2017-Aug-18 08:00N 26°04' W 080°07'2 1.5
2017-Aug-18 06:48N 26°06' W 080°07'1 3.0
2017-Aug-18 06:30N 26°05' W 080°07'0 0.1
2017-Aug-18 06:00N 26°05' W 080°07'0 0.1
2017-Aug-18 05:31N 26°05' W 080°07'2 4.3
2017-Aug-18 05:00N 26°06' W 080°05'1 2.7
2017-Aug-18 04:31N 26°06' W 080°06'1 0.4
2017-Aug-18 01:43N 26°06' W 080°07'1 4.7
2017-Aug-18 01:30N 26°06' W 080°06'1 2.1
2017-Aug-18 01:01N 26°06' W 080°05'2 3.4
2017-Aug-18 00:30N 26°06' W 080°07'1 2.1
2017-Aug-18 00:00N 26°06' W 080°06'1 2.1
2017-Aug-17 23:30N 26°05' W 080°07'1 2.7
2017-Aug-17 23:00N 26°06' W 080°06'1 2.8
2017-Aug-17 22:30N 26°06' W 080°07'0 0.1
2017-Aug-17 19:13N 26°06' W 080°07'1 6.6
2017-Aug-17 19:00N 26°05' W 080°07'0 0.4
2017-Aug-17 18:30N 26°05' W 080°07'1 1.1
2017-Aug-17 18:00N 26°05' W 080°07'1 1.9
2017-Aug-17 17:30N 26°05' W 080°07'4 8.1
2017-Aug-17 17:00N 26°06' W 080°03'4 8.3
2017-Aug-17 16:30N 26°04' W 080°07'1 2.0
2017-Aug-17 16:00N 26°05' W 080°07'1 2.0
2017-Aug-17 15:30N 26°06' W 080°06'1 2.0
2017-Aug-17 15:00N 26°06' W 080°07'1 0.4
2017-Aug-17 13:25N 26°06' W 080°07'1 1.9
2017-Aug-17 13:00N 26°05' W 080°07'2 4.1
2017-Aug-17 12:30N 26°06' W 080°05'2 4.3
2017-Aug-17 12:00N 26°06' W 080°07'1 0.3
2017-Aug-17 09:36N 26°06' W 080°07'0 2.5
2017-Aug-17 09:31N 26°06' W 080°07'5 9.1
2017-Aug-17 09:01N 26°06' W 080°02'4 8.7
2017-Aug-17 08:30N 26°05' W 080°07'1 0.3
2017-Aug-17 05:53N 26°06' W 080°07'1 2.5
2017-Aug-17 05:30N 26°06' W 080°06'1 2.7
2017-Aug-17 05:00N 26°04' W 080°07'1 2.4
2017-Aug-17 04:30N 26°06' W 080°07'2 3.0
2017-Aug-17 03:59N 26°06' W 080°05'1 2.7
2017-Aug-17 03:30N 26°06' W 080°07'0 0.7
2017-Aug-17 03:00N 26°05' W 080°07'3 5.0
2017-Aug-17 02:30N 26°06' W 080°04'3 6.3
2017-Aug-17 02:00N 26°04' W 080°07'0 0.4
2017-Aug-17 01:30N 26°04' W 080°07'3 5.2
2017-Aug-17 01:00N 26°06' W 080°05'0 0.9
2017-Aug-17 00:31N 26°06' W 080°04'3 5.1
2017-Aug-17 00:00N 26°06' W 080°07'2 4.6
2017-Aug-16 23:30N 26°06' W 080°05'1 2.0
2017-Aug-16 23:00N 26°06' W 080°06'2 3.3
2017-Aug-16 22:30N 26°05' W 080°07'1 2.3
2017-Aug-16 22:00N 26°06' W 080°06'1 2.1
2017-Aug-16 21:30N 26°05' W 080°07'3 5.5
2017-Aug-16 21:00N 26°06' W 080°04'2 5.0
2017-Aug-16 20:30N 26°05' W 080°07'0 0.8
2017-Aug-16 20:00N 26°06' W 080°07'0 0.2
2017-Aug-16 19:30N 26°06' W 080°07'0 0.1
2017-Aug-16 19:00N 26°06' W 080°07'3 5.7
2017-Aug-16 18:30N 26°06' W 080°04'1 1.5
2017-Aug-16 18:00N 26°05' W 080°05'2 4.5
2017-Aug-16 17:30N 26°04' W 080°07'1 2.2
2017-Aug-16 17:00N 26°05' W 080°07'4 7.8
2017-Aug-16 16:30N 26°06' W 080°03'4 1.1
2017-Aug-16 12:58N 26°06' W 080°07'1 1.7
2017-Aug-16 12:30N 26°06' W 080°06'1 0.8
2017-Aug-16 11:12N 26°06' W 080°07'1 6.0
2017-Aug-16 11:00N 26°06' W 080°06'2 3.2
2017-Aug-16 10:31N 26°05' W 080°04'2 4.8
2017-Aug-16 10:00N 26°05' W 080°07'0 0.3
2017-Aug-16 09:30N 26°05' W 080°07'4 7.8
2017-Aug-16 09:00N 26°05' W 080°03'4 8.1
2017-Aug-16 08:30N 26°04' W 080°07'3 6.2
2017-Aug-16 08:00N 26°06' W 080°04'2 3.8
2017-Aug-16 07:30N 26°06' W 080°06'1 2.2
2017-Aug-16 07:01N 26°05' W 080°07'1 2.7
2017-Aug-16 06:31N 26°04' W 080°07'2 0.6
2017-Aug-16 03:38N 26°06' W 080°07'0 3.7
2017-Aug-16 03:30N 26°06' W 080°07'1 1.2
2017-Aug-16 03:00N 26°05' W 080°07'1 1.0
2017-Aug-16 02:30N 26°04' W 080°07'1 2.2
2017-Aug-16 02:00N 26°06' W 080°07'1 1.6
2017-Aug-16 01:30N 26°05' W 080°07'3 5.9
2017-Aug-16 01:00N 26°06' W 080°04'3 5.7
2017-Aug-16 00:30N 26°06' W 080°07'0 0.7
2017-Aug-16 00:00N 26°06' W 080°07'1 1.2
2017-Aug-15 23:30N 26°06' W 080°07'0 0.3
2017-Aug-15 22:33N 26°06' W 080°07'0 2.6
2017-Aug-15 22:30N 26°06' W 080°07'1 2.7
2017-Aug-15 22:00N 26°05' W 080°07'3 6.3
2017-Aug-15 21:30N 26°05' W 080°03'3 6.2
2017-Aug-15 21:00N 26°05' W 080°07'1 2.9
2017-Aug-15 20:30N 26°04' W 080°07'1 2.8
2017-Aug-15 20:01N 26°05' W 080°07'1 1.4
2017-Aug-15 19:22N 26°06' W 080°07'1 2.3
2017-Aug-15 19:00N 26°06' W 080°07'5 9.2
2017-Aug-15 18:30N 26°07' W 080°02'510.0
2017-Aug-15 18:00N 26°06' W 080°07'0 0.5
2017-Aug-15 17:17N 26°06' W 080°07'2 7.5
2017-Aug-15 17:00N 26°04' W 080°07'2 3.5
2017-Aug-15 16:31N 26°06' W 080°07'3 6.4
2017-Aug-15 16:00N 26°05' W 080°04'3 6.3
2017-Aug-15 15:30N 26°04' W 080°07'4 7.4
2017-Aug-15 15:00N 26°03' W 080°03'4 8.8
2017-Aug-15 14:30N 26°06' W 080°07'0 0.1
2017-Aug-15 14:00N 26°06' W 080°07'2 4.8
2017-Aug-15 13:30N 26°06' W 080°05'1 2.4
2017-Aug-15 13:00N 26°05' W 080°03'4 7.5
2017-Aug-15 12:30N 26°06' W 080°07'0 0.7
2017-Aug-15 12:00N 26°06' W 080°07'1 0.0
2017-Aug-15 01:37N 26°06' W 080°07'0 4.2
2017-Aug-15 01:30N 26°06' W 080°07'0 0.7
2017-Aug-15 01:01N 26°06' W 080°07'0 0.9
2017-Aug-15 00:31N 26°05' W 080°07'1 1.7
2017-Aug-14 23:52N 26°06' W 080°07'1 3.0
2017-Aug-14 23:30N 26°05' W 080°07'2 3.9
2017-Aug-14 23:00N 26°05' W 080°05'1 2.4
2017-Aug-14 22:30N 26°06' W 080°06'1 2.0
2017-Aug-14 22:00N 26°06' W 080°07'1 1.2
2017-Aug-14 21:30N 26°05' W 080°07'1 1.2
2017-Aug-14 20:37N 26°06' W 080°07'0 4.1
2017-Aug-14 20:31N 26°06' W 080°07'0 0.3
2017-Aug-14 20:01N 26°06' W 080°07'0 0.3
2017-Aug-14 18:50N 26°06' W 080°07'1 4.3
2017-Aug-14 18:31N 26°06' W 080°06'1 2.7
2017-Aug-14 18:00N 26°05' W 080°07'0 0.1
2017-Aug-14 17:31N 26°05' W 080°07'2 3.4
2017-Aug-14 17:01N 26°06' W 080°05'2 1.9
2017-Aug-14 16:01N 26°06' W 080°07'0 1.3
2017-Aug-14 16:00N 26°06' W 080°07'1 1.5
2017-Aug-14 15:30N 26°06' W 080°07'1 2.3
2017-Aug-14 15:00N 26°05' W 080°07'1 1.7
2017-Aug-14 14:30N 26°05' W 080°07'1 0.4
2017-Aug-14 12:50N 26°06' W 080°07'2 6.3
2017-Aug-14 12:31N 26°06' W 080°05'0 1.0
2017-Aug-14 12:01N 26°06' W 080°05'3 5.7
2017-Aug-14 11:30N 26°05' W 080°02'4 8.9
2017-Aug-14 11:00N 26°06' W 080°07'0 0.0
2017-Aug-14 01:24N 26°06' W 080°07'3 7.2
2017-Aug-14 01:00N 26°06' W 080°04'3 6.0
2017-Aug-14 00:31N 26°06' W 080°07'0 0.2
2017-Aug-13 23:29N 26°06' W 080°07'1 1.5
2017-Aug-13 23:00N 26°05' W 080°07'1 2.7
2017-Aug-13 22:31N 26°06' W 080°06'1 1.0
2017-Aug-13 22:01N 26°05' W 080°05'0 0.8
2017-Aug-13 21:31N 26°06' W 080°05'2 3.6
2017-Aug-13 21:00N 26°06' W 080°07'0 0.2
2017-Aug-13 20:30N 26°06' W 080°07'1 0.2
2017-Aug-13 16:57N 26°06' W 080°07'2 3.9
2017-Aug-13 16:30N 26°04' W 080°07'3 6.7
2017-Aug-13 16:00N 26°05' W 080°03'4 3.0
2017-Aug-13 14:41N 26°06' W 080°07'1 6.6
2017-Aug-13 14:31N 26°05' W 080°07'1 1.0
2017-Aug-13 14:00N 26°06' W 080°07'0 0.8
2017-Aug-13 13:30N 26°06' W 080°07'0 0.1
2017-Aug-13 13:01N 26°06' W 080°07'1 2.1
2017-Aug-13 12:30N 26°06' W 080°06'1 2.3
2017-Aug-13 12:01N 26°06' W 080°07'  

Dump ship's entire track history